Aéroport int. Stanfield de Halifax, Nouvelle Écosse

Conditions des dernières 24 heures

Ce tableau est un sommaire des conditions météo couvrant les dernières 24 heures. Ce sommaire inclut les paramètres suivants: température, humidité, point de rosée, direction et vitesse du vent, pression barométrique, facteur de refroidissement éolien ou indice humidex.
Date / Heure
(HAA)
Conditions Temp (°C) Humidite (%) Point de rose (°C) Vent (km/h) Pression (kPa) Vis (km) Humidex
22 septembre 2014
19:00 Généralement ensoleillé 18   85 15 SSO 28 rafale 40 100,4 24 *
18:00 Généralement ensoleillé 19 86 16 SSO 27 rafale 41 100,3 24 *
17:00 Généralement nuageux 19 88 17 SSO 30 rafale 44 100,3 24 *
16:00 Partiellement nuageux 22 77 18 SO 31 rafale 43 100,2 24 28
15:00 Généralement nuageux 23 79 19 SSO 24 rafale 39 100,2 24 30
14:00 Généralement nuageux 23 76 19 SO 39 rafale 49 100,1 24 30
13:00 Généralement nuageux 24   76 19 SO 27 rafale 41 100,1 24 31
12:00 Généralement nuageux 23 80 19 OSO 32 100,0 24 30
11:00 Généralement nuageux 21 87 19 O 22 100,0 24 28
10:00 Nuageux 20 94 19 O 17 rafale 30 99,9 24 27
9:00 Partiellement nuageux 20 94 19 SO 19 99,7 24 27
8:00 Faible averse de pluie 20 97 19 SSO 23 99,7 5 *
7:00 Forte averse de pluie 20 97 20 SSO 40 rafale 60 99,7 2 27
6:00 Forte averse de pluie 21 96 20 S 54 rafale 80 99,5 5 29
5:00 Pluie forte 21 96 20 SSE 45 rafale 82 99,5 3 28
4:00 Pluie faible 20 95 20 S 54 rafale 84 99,8 5 28
3:00 Pluie forte 20 97 20 S 43 rafale 60 100,1 2 28
2:00 Pluie forte 20 97 19 SSE 24 rafale 49 100,2 2 *
1:00 Pluie forte 20 97 19 SSE 22 100,5 5 *
0:00 Pluie 20 97 19 SSE 26 rafale 38 100,7 3 *
21 septembre 2014
23:00 Averse de pluie 20 97 19 SSE 24 rafale 42 100,9 3 *
22:00 Faible averse de pluie 20 97 20 S 36 rafale 59 101,0 5 28
21:00 Faible averse de pluie 19 96 19 SSE 26 rafale 46 101,2 6 *
20:00 Averse de pluie 20 97 20 SSE 34 rafale 58 101,3 5 28
19:00 Faible averse de pluie 19 97 19 S 25 101,4 6 *
N.D.
non disponible
 ↑ 
température la plus haute
 ↓ 
température la plus basse
*
Valeur non significative.

Si vous désirez plus de données historiques sur les conditions météo, s.v.p. visitez Données climatologiques en ligne.